Time,TemperatureF,DewpointF,PressureIn,WindDirection,WindDirectionDegrees,WindSpeedMPH,WindSpeedGustMPH,Humidity,HourlyPrecipIn,Conditions,Clouds,dailyrainin,SoftwareType,DateUTC
2013-08-24 00:04:00,61.2,50.6,29.94,NNE,23,5.6,7.2,68,0.00,,,0.00,WUHU216HW,2013-08-24 07:04:00,
2013-08-24 00:09:00,60.8,50.3,29.94,NNE,23,4.9,7.2,68,0.00,,,0.00,WUHU216HW,2013-08-24 07:09:00,
2013-08-24 00:14:00,60.8,50.3,29.94,ENE,68,3.4,5.6,68,0.00,,,0.00,WUHU216HW,2013-08-24 07:14:00,
2013-08-24 00:19:00,60.3,50.1,29.94,ENE,68,2.2,4.3,69,0.00,,,0.00,WUHU216HW,2013-08-24 07:19:00,
2013-08-24 00:24:00,60.3,50.1,29.94,NNE,23,1.8,4.3,69,0.00,,,0.00,WUHU216HW,2013-08-24 07:24:00,
2013-08-24 00:29:00,60.1,49.6,29.94,NNE,23,0.4,3.4,68,0.00,,,0.00,WUHU216HW,2013-08-24 07:29:00,
2013-08-24 00:34:00,60.3,49.3,29.94,NNE,23,0.0,1.8,67,0.00,,,0.00,WUHU216HW,2013-08-24 07:34:00,
2013-08-24 00:39:00,60.1,50.0,29.94,NNE,23,1.6,3.4,69,0.00,,,0.00,WUHU216HW,2013-08-24 07:39:00,
2013-08-24 00:44:00,60.1,50.0,29.94,ENE,68,1.6,3.4,69,0.00,,,0.00,WUHU216HW,2013-08-24 07:44:00,
2013-08-24 00:49:00,59.9,49.8,29.94,NE,45,0.9,2.2,69,0.00,,,0.00,WUHU216HW,2013-08-24 07:49:00,
2013-08-24 00:54:00,59.9,49.4,29.94,NE,45,0.0,1.8,68,0.00,,,0.00,WUHU216HW,2013-08-24 07:54:00,
2013-08-24 00:59:00,59.9,49.0,29.94,NE,45,0.0,0.9,67,0.00,,,0.00,WUHU216HW,2013-08-24 07:59:00,
2013-08-24 01:04:00,59.8,49.2,29.95,NE,45,0.0,0.0,68,0.00,,,0.00,WUHU216HW,2013-08-24 08:04:00,
2013-08-24 01:09:00,59.8,49.2,29.95,NE,45,0.0,0.0,68,0.00,,,0.00,WUHU216HW,2013-08-24 08:09:00,
2013-08-24 01:14:00,59.2,49.1,29.94,NE,45,0.0,0.0,69,0.00,,,0.00,WUHU216HW,2013-08-24 08:14:00,
2013-08-24 01:19:00,59.0,48.9,29.95,ENE,68,1.3,1.3,69,0.00,,,0.00,WUHU216HW,2013-08-24 08:19:00,
2013-08-24 01:24:00,58.7,49.0,29.95,ENE,68,0.9,1.8,70,0.00,,,0.00,WUHU216HW,2013-08-24 08:24:00,
2013-08-24 01:29:00,58.5,49.1,29.95,ENE,68,1.1,1.8,71,0.00,,,0.00,WUHU216HW,2013-08-24 08:29:00,
2013-08-24 01:34:00,58.5,49.5,29.95,NE,45,0.7,1.3,72,0.00,,,0.00,WUHU216HW,2013-08-24 08:34:00,
2013-08-24 01:39:00,58.5,49.5,29.95,ENE,68,1.1,1.3,72,0.00,,,0.00,WUHU216HW,2013-08-24 08:39:00,
2013-08-24 01:44:00,58.7,49.3,29.95,ENE,68,1.3,1.3,71,0.00,,,0.00,WUHU216HW,2013-08-24 08:44:00,
2013-08-24 01:49:00,58.7,49.3,29.95,ENE,68,0.0,1.3,71,0.00,,,0.00,WUHU216HW,2013-08-24 08:49:00,
2013-08-24 01:54:00,58.9,49.1,29.95,NE,45,0.7,1.3,70,0.00,,,0.00,WUHU216HW,2013-08-24 08:54:00,
2013-08-24 01:59:00,59.0,49.3,29.95,North,0,0.0,0.7,70,0.00,,,0.00,WUHU216HW,2013-08-24 08:59:00,
2013-08-24 02:04:00,58.9,49.1,29.95,East,90,1.3,2.2,70,0.00,,,0.00,WUHU216HW,2013-08-24 09:04:00,
2013-08-24 02:09:00,58.9,49.1,29.95,East,90,1.1,2.2,70,0.00,,,0.00,WUHU216HW,2013-08-24 09:09:00,
2013-08-24 02:14:00,58.9,49.1,29.95,East,90,0.4,1.1,70,0.00,,,0.00,WUHU216HW,2013-08-24 09:14:00,
2013-08-24 02:19:00,58.9,49.1,29.95,East,90,0.0,0.9,70,0.00,,,0.00,WUHU216HW,2013-08-24 09:19:00,
2013-08-24 02:24:00,59.0,48.9,29.95,East,90,0.0,0.4,69,0.00,,,0.00,WUHU216HW,2013-08-24 09:24:00,
2013-08-24 02:29:00,59.0,48.9,29.95,East,90,0.0,0.0,69,0.00,,,0.00,WUHU216HW,2013-08-24 09:29:00,
2013-08-24 02:34:00,59.0,48.9,29.95,East,90,0.0,0.0,69,0.00,,,0.00,WUHU216HW,2013-08-24 09:34:00,
2013-08-24 02:39:00,59.0,48.9,29.95,East,90,0.0,0.4,69,0.00,,,0.00,WUHU216HW,2013-08-24 09:39:00,
2013-08-24 02:44:00,58.9,48.7,29.95,East,90,0.7,0.7,69,0.00,,,0.00,WUHU216HW,2013-08-24 09:44:00,
2013-08-24 02:49:00,58.7,48.5,29.95,East,90,1.1,1.1,69,0.00,,,0.00,WUHU216HW,2013-08-24 09:49:00,
2013-08-24 02:54:00,58.5,48.3,29.95,East,90,0.0,1.1,69,0.00,,,0.00,WUHU216HW,2013-08-24 09:54:00,
2013-08-24 02:59:00,58.1,48.4,29.95,East,90,1.1,1.3,70,0.00,,,0.00,WUHU216HW,2013-08-24 09:59:00,
2013-08-24 03:04:00,57.8,48.1,29.95,East,90,0.0,1.3,70,0.00,,,0.00,WUHU216HW,2013-08-24 10:04:00,
2013-08-24 03:09:00,57.6,48.2,29.95,East,90,0.0,1.1,71,0.00,,,0.00,WUHU216HW,2013-08-24 10:09:00,
2013-08-24 03:14:00,57.2,47.9,29.95,East,90,0.0,0.0,71,0.00,,,0.00,WUHU216HW,2013-08-24 10:14:00,
2013-08-24 03:19:00,56.9,48.2,29.95,East,90,0.0,0.0,73,0.00,,,0.00,WUHU216HW,2013-08-24 10:19:00,
2013-08-24 03:24:00,56.2,48.0,29.95,East,90,0.0,0.0,74,0.00,,,0.00,WUHU216HW,2013-08-24 10:24:00,
2013-08-24 03:29:00,56.0,48.5,29.95,East,90,0.0,0.0,76,0.00,,,0.00,WUHU216HW,2013-08-24 10:29:00,
2013-08-24 03:34:00,55.8,48.3,29.95,East,90,0.0,0.0,76,0.00,,,0.00,WUHU216HW,2013-08-24 10:34:00,
2013-08-24 03:39:00,55.6,48.2,29.94,East,90,0.7,0.7,76,0.00,,,0.00,WUHU216HW,2013-08-24 10:39:00,
2013-08-24 03:44:00,55.3,47.8,29.94,East,90,0.4,0.7,76,0.00,,,0.00,WUHU216HW,2013-08-24 10:44:00,
2013-08-24 03:49:00,55.1,47.6,29.94,East,90,0.0,0.7,76,0.00,,,0.00,WUHU216HW,2013-08-24 10:49:00,
2013-08-24 03:54:00,55.1,48.0,29.94,East,90,0.0,0.4,77,0.00,,,0.00,WUHU216HW,2013-08-24 10:54:00,
2013-08-24 03:59:00,55.1,47.6,29.94,East,90,0.0,0.0,76,0.00,,,0.00,WUHU216HW,2013-08-24 10:59:00,
2013-08-24 04:04:00,54.9,47.4,29.94,East,90,0.0,0.0,76,0.00,,,0.00,WUHU216HW,2013-08-24 11:04:00,
2013-08-24 04:09:00,54.7,47.6,29.94,East,90,0.4,0.4,77,0.00,,,0.00,WUHU216HW,2013-08-24 11:09:00,
2013-08-24 04:14:00,54.7,48.0,29.94,East,90,1.3,1.3,78,0.00,,,0.00,WUHU216HW,2013-08-24 11:14:00,
2013-08-24 04:19:00,54.7,48.3,29.94,SSE,158,0.9,1.6,79,0.00,,,0.00,WUHU216HW,2013-08-24 11:19:00,
2013-08-24 04:24:00,54.7,48.0,29.94,SSE,158,0.4,1.6,78,0.00,,,0.00,WUHU216HW,2013-08-24 11:24:00,
2013-08-24 04:29:00,54.4,47.3,29.94,SSE,158,0.0,0.9,77,0.00,,,0.00,WUHU216HW,2013-08-24 11:29:00,
2013-08-24 04:34:00,54.4,47.0,29.94,SSE,158,0.0,0.9,76,0.00,,,0.00,WUHU216HW,2013-08-24 11:34:00,
2013-08-24 04:39:00,54.2,46.8,29.94,SSE,158,0.0,0.0,76,0.00,,,0.00,WUHU216HW,2013-08-24 11:39:00,
2013-08-24 04:44:00,54.0,47.0,29.94,SSE,158,0.0,0.0,77,0.00,,,0.00,WUHU216HW,2013-08-24 11:44:00,
2013-08-24 04:49:00,54.0,47.0,29.93,SSE,158,0.0,0.0,77,0.00,,,0.00,WUHU216HW,2013-08-24 11:49:00,
2013-08-24 04:54:00,54.0,47.0,29.94,SSE,158,0.4,0.4,77,0.00,,,0.00,WUHU216HW,2013-08-24 11:54:00,
2013-08-24 04:59:00,54.2,47.5,29.93,SSE,158,0.0,0.4,78,0.00,,,0.00,WUHU216HW,2013-08-24 11:59:00,
2013-08-24 05:04:00,54.0,47.4,29.93,SSE,158,0.0,0.4,78,0.00,,,0.00,WUHU216HW,2013-08-24 12:04:00,
2013-08-24 05:09:00,54.0,47.0,29.93,SSE,158,0.0,0.2,77,0.00,,,0.00,WUHU216HW,2013-08-24 12:09:00,
2013-08-24 05:14:00,53.8,47.5,29.93,SSE,158,0.0,0.2,79,0.00,,,0.00,WUHU216HW,2013-08-24 12:14:00,
2013-08-24 05:19:00,53.6,47.3,29.93,SSE,158,0.0,0.0,79,0.00,,,0.00,WUHU216HW,2013-08-24 12:19:00,
2013-08-24 05:24:00,53.5,47.5,29.93,SSE,158,0.4,0.4,80,0.00,,,0.00,WUHU216HW,2013-08-24 12:24:00,
2013-08-24 05:29:00,53.5,47.5,29.93,SSE,158,0.7,0.7,80,0.00,,,0.00,WUHU216HW,2013-08-24 12:29:00,
2013-08-24 05:34:00,53.3,47.3,29.93,SSE,158,0.0,0.7,80,0.00,,,0.00,WUHU216HW,2013-08-24 12:34:00,
2013-08-24 05:39:00,53.3,47.0,29.93,SSE,158,0.0,0.4,79,0.00,,,0.00,WUHU216HW,2013-08-24 12:39:00,
2013-08-24 05:44:00,53.5,47.2,29.93,SSE,158,0.0,0.4,79,0.00,,,0.00,WUHU216HW,2013-08-24 12:44:00,
2013-08-24 05:49:00,53.8,47.2,29.94,SSE,158,0.2,0.9,78,0.00,,,0.00,WUHU216HW,2013-08-24 12:49:00,
2013-08-24 05:54:00,54.0,47.7,29.94,SSE,158,0.9,1.1,79,0.00,,,0.00,WUHU216HW,2013-08-24 12:54:00,
2013-08-24 05:59:00,54.0,47.4,29.94,SSE,158,0.4,1.1,78,0.00,,,0.00,WUHU216HW,2013-08-24 12:59:00,
2013-08-24 06:04:00,54.2,47.5,29.93,SSE,158,0.4,1.1,78,0.00,,,0.00,WUHU216HW,2013-08-24 13:04:00,
2013-08-24 06:09:00,54.4,47.6,29.94,SSE,158,0.7,0.7,78,0.00,,,0.00,WUHU216HW,2013-08-24 13:09:00,
2013-08-24 06:14:00,54.2,47.5,29.94,SSE,158,0.0,0.7,78,0.00,,,0.00,WUHU216HW,2013-08-24 13:14:00,
2013-08-24 06:19:00,54.0,47.4,29.94,SSE,158,0.4,0.4,78,0.00,,,0.00,WUHU216HW,2013-08-24 13:19:00,
2013-08-24 06:24:00,54.0,47.4,29.94,SSE,158,0.0,0.4,78,0.00,,,0.00,WUHU216HW,2013-08-24 13:24:00,
2013-08-24 06:29:00,53.8,47.2,29.94,SSE,158,0.4,0.4,78,0.00,,,0.00,WUHU216HW,2013-08-24 13:29:00,
2013-08-24 06:34:00,54.0,47.7,29.94,SSE,158,0.0,0.7,79,0.00,,,0.00,WUHU216HW,2013-08-24 13:34:00,
2013-08-24 06:39:00,54.0,47.4,29.94,SSE,158,0.2,1.1,78,0.00,,,0.00,WUHU216HW,2013-08-24 13:39:00,
2013-08-24 06:44:00,54.2,47.8,29.94,SSE,158,0.4,1.1,79,0.00,,,0.00,WUHU216HW,2013-08-24 13:44:00,
2013-08-24 06:49:00,54.2,47.5,29.94,SSE,158,0.7,0.9,78,0.00,,,0.00,WUHU216HW,2013-08-24 13:49:00,
2013-08-24 06:54:00,54.4,47.6,29.94,SSE,158,0.0,0.9,78,0.00,,,0.00,WUHU216HW,2013-08-24 13:54:00,
2013-08-24 06:59:00,54.4,47.6,29.94,SSE,158,0.9,0.9,78,0.00,,,0.00,WUHU216HW,2013-08-24 13:59:00,
2013-08-24 07:04:00,54.2,47.5,29.94,South,180,0.4,0.9,78,0.00,,,0.00,WUHU216HW,2013-08-24 14:04:00,
2013-08-24 07:09:00,54.4,47.6,29.94,South,180,0.0,1.1,78,0.00,,,0.00,WUHU216HW,2013-08-24 14:09:00,
2013-08-24 07:14:00,54.4,47.6,29.94,South,180,0.9,1.1,78,0.00,,,0.00,WUHU216HW,2013-08-24 14:14:00,
2013-08-24 07:19:00,54.5,47.8,29.94,South,180,0.0,1.1,78,0.00,,,0.00,WUHU216HW,2013-08-24 14:19:00,
2013-08-24 07:24:00,55.1,48.3,29.94,South,180,0.9,1.1,78,0.00,,,0.00,WUHU216HW,2013-08-24 14:24:00,
2013-08-24 07:29:00,55.1,48.3,29.94,South,180,0.2,1.1,78,0.00,,,0.00,WUHU216HW,2013-08-24 14:29:00,
2013-08-24 07:34:00,55.3,48.2,29.95,South,180,0.9,0.9,77,0.00,,,0.00,WUHU216HW,2013-08-24 14:34:00,
2013-08-24 07:39:00,55.6,48.5,29.95,South,180,1.3,1.8,77,0.00,,,0.00,WUHU216HW,2013-08-24 14:39:00,
2013-08-24 07:44:00,56.0,48.5,29.95,South,180,0.4,1.8,76,0.00,,,0.00,WUHU216HW,2013-08-24 14:44:00,
2013-08-24 07:49:00,57.8,49.1,29.95,South,180,0.2,0.4,73,0.00,,,0.00,WUHU216HW,2013-08-24 14:49:00,
2013-08-24 07:54:00,58.7,49.3,29.95,South,180,1.1,1.1,71,0.00,,,0.00,WUHU216HW,2013-08-24 14:54:00,
2013-08-24 07:59:00,58.1,48.8,29.95,SW,225,1.1,2.5,71,0.00,,,0.00,WUHU216HW,2013-08-24 14:59:00,
2013-08-24 08:05:00,57.8,48.8,29.95,SW,225,0.4,2.5,72,0.00,,,0.00,WUHU216HW,2013-08-24 15:05:00,
2013-08-24 08:10:00,58.0,49.0,29.94,SW,225,0.0,1.6,72,0.00,,,0.00,WUHU216HW,2013-08-24 15:10:00,
2013-08-24 08:15:00,58.1,49.1,29.94,SW,225,0.7,1.1,72,0.00,,,0.00,WUHU216HW,2013-08-24 15:15:00,
2013-08-24 08:20:00,58.7,49.3,29.94,SW,225,0.9,1.1,71,0.00,,,0.00,WUHU216HW,2013-08-24 15:20:00,
2013-08-24 08:25:00,59.8,49.6,29.94,SW,225,0.4,1.1,69,0.00,,,0.00,WUHU216HW,2013-08-24 15:25:00,
2013-08-24 08:30:00,61.0,50.0,29.95,North,0,2.5,2.5,67,0.00,,,0.00,WUHU216HW,2013-08-24 15:30:00,
2013-08-24 08:35:00,61.6,50.9,29.95,North,0,1.8,2.9,68,0.00,,,0.00,WUHU216HW,2013-08-24 15:35:00,
2013-08-24 08:40:00,62.5,51.3,29.94,NNW,338,3.4,3.4,67,0.00,,,0.00,WUHU216HW,2013-08-24 15:40:00,
2013-08-24 08:45:00,62.6,50.7,29.95,NW,315,2.5,3.4,65,0.00,,,0.00,WUHU216HW,2013-08-24 15:45:00,
2013-08-24 08:50:00,62.3,50.3,29.95,North,0,3.1,3.4,65,0.00,,,0.00,WUHU216HW,2013-08-24 15:50:00,
2013-08-24 08:55:00,62.3,50.3,29.94,NW,315,2.5,3.1,65,0.00,,,0.00,WUHU216HW,2013-08-24 15:55:00,
2013-08-24 09:00:00,62.6,50.7,29.94,WNW,293,1.8,3.4,65,0.00,,,0.00,WUHU216HW,2013-08-24 16:00:00,
2013-08-24 09:05:00,63.0,50.6,29.94,North,0,3.8,4.7,64,0.00,,,0.00,WUHU216HW,2013-08-24 16:05:00,
2013-08-24 09:10:00,63.2,50.8,29.94,NNW,338,3.8,4.7,64,0.00,,,0.00,WUHU216HW,2013-08-24 16:10:00,
2013-08-24 09:15:00,64.1,51.6,29.94,NNW,338,1.3,4.5,64,0.00,,,0.00,WUHU216HW,2013-08-24 16:15:00,
2013-08-24 09:20:00,65.0,51.2,29.94,North,0,2.9,4.0,61,0.00,,,0.00,WUHU216HW,2013-08-24 16:20:00,
2013-08-24 09:25:00,66.2,51.6,29.94,NNW,338,1.8,3.4,59,0.00,,,0.00,WUHU216HW,2013-08-24 16:25:00,
2013-08-24 09:30:00,67.0,51.2,29.94,NNE,23,1.1,3.4,57,0.00,,,0.00,WUHU216HW,2013-08-24 16:30:00,
2013-08-24 09:35:00,67.9,51.0,29.94,ENE,68,2.2,4.7,55,0.00,,,0.00,WUHU216HW,2013-08-24 16:35:00,
2013-08-24 09:40:00,67.1,50.9,29.94,NNE,23,1.6,5.4,56,0.00,,,0.00,WUHU216HW,2013-08-24 16:40:00,
2013-08-24 09:45:00,66.2,51.0,29.94,NNE,23,1.1,5.4,58,0.00,,,0.00,WUHU216HW,2013-08-24 16:45:00,
2013-08-24 09:50:00,67.1,51.4,29.94,NNW,338,2.5,4.7,57,0.00,,,0.00,WUHU216HW,2013-08-24 16:50:00,
2013-08-24 09:55:00,67.5,50.8,29.94,ENE,68,5.6,5.6,55,0.00,,,0.00,WUHU216HW,2013-08-24 16:55:00,
2013-08-24 10:00:00,66.1,50.4,29.94,NE,45,5.4,6.9,57,0.00,,,0.00,WUHU216HW,2013-08-24 17:00:00,
2013-08-24 10:05:00,65.3,50.7,29.93,NNE,23,1.8,6.9,59,0.00,,,0.00,WUHU216HW,2013-08-24 17:05:00,
2013-08-24 10:10:00,65.7,50.5,29.93,North,0,4.0,5.4,58,0.00,,,0.00,WUHU216HW,2013-08-24 17:10:00,
2013-08-24 10:15:00,66.6,50.4,29.93,ENE,68,2.5,4.0,56,0.00,,,0.00,WUHU216HW,2013-08-24 17:15:00,
2013-08-24 10:20:00,67.1,51.4,29.93,NW,315,2.2,2.5,57,0.00,,,0.00,WUHU216HW,2013-08-24 17:20:00,
2013-08-24 10:25:00,67.9,50.6,29.93,WSW,248,1.8,5.8,54,0.00,,,0.00,WUHU216HW,2013-08-24 17:25:00,
2013-08-24 10:30:00,68.2,50.4,29.93,NE,45,2.5,5.8,53,0.00,,,0.00,WUHU216HW,2013-08-24 17:30:00,
2013-08-24 10:35:00,68.4,51.0,29.93,SW,225,1.1,3.6,54,0.00,,,0.00,WUHU216HW,2013-08-24 17:35:00,
2013-08-24 10:40:00,69.3,51.0,29.93,North,0,2.0,2.9,52,0.00,,,0.00,WUHU216HW,2013-08-24 17:40:00,
2013-08-24 10:45:00,69.1,50.8,29.93,SSE,158,0.9,5.4,52,0.00,,,0.00,WUHU216HW,2013-08-24 17:45:00,
2013-08-24 10:55:00,69.7,50.8,29.93,NNE,23,2.9,4.7,51,0.00,,,0.00,WUHU216HW,2013-08-24 17:55:00,
2013-08-24 11:00:00,69.8,51.0,29.93,ENE,68,3.1,3.1,51,0.00,,,0.00,WUHU216HW,2013-08-24 18:00:00,
2013-08-24 11:05:00,69.5,50.6,29.92,ESE,113,0.9,4.0,51,0.00,,,0.00,WUHU216HW,2013-08-24 18:05:00,
2013-08-24 11:10:00,70.2,51.2,29.92,WNW,293,5.1,5.1,51,0.00,,,0.00,WUHU216HW,2013-08-24 18:10:00,
2013-08-24 11:15:00,70.7,51.2,29.93,SW,225,4.7,5.1,50,0.00,,,0.00,WUHU216HW,2013-08-24 18:15:00,
2013-08-24 11:20:00,70.9,51.4,29.92,WSW,248,3.6,4.7,50,0.00,,,0.00,WUHU216HW,2013-08-24 18:20:00,
2013-08-24 11:25:00,71.1,50.9,29.92,WSW,248,4.0,4.7,49,0.00,,,0.00,WUHU216HW,2013-08-24 18:25:00,
2013-08-24 11:30:00,71.3,51.1,29.92,SSW,203,1.3,4.7,49,0.00,,,0.00,WUHU216HW,2013-08-24 18:30:00,
2013-08-24 11:35:00,71.6,51.4,29.92,SW,225,2.9,4.7,49,0.00,,,0.00,WUHU216HW,2013-08-24 18:35:00,
2013-08-24 11:40:00,72.2,51.3,29.91,West,270,2.5,4.7,48,0.00,,,0.00,WUHU216HW,2013-08-24 18:40:00,
2013-08-24 11:45:00,73.1,50.9,29.91,NNE,23,1.6,5.1,46,0.00,,,0.00,WUHU216HW,2013-08-24 18:45:00,
2013-08-24 11:50:00,74.2,51.4,29.91,NNW,338,2.9,5.1,45,0.00,,,0.00,WUHU216HW,2013-08-24 18:50:00,
2013-08-24 11:56:00,74.3,50.3,29.91,WNW,293,1.8,5.8,43,0.00,,,0.00,WUHU216HW,2013-08-24 18:56:00,
2013-08-24 12:10:00,74.3,50.3,29.91,ESE,113,4.9,5.8,43,0.00,,,0.00,WUHU216HW,2013-08-24 19:10:00,
2013-08-24 12:15:00,75.6,48.9,29.90,WNW,293,1.6,4.7,39,0.00,,,0.00,WUHU216HW,2013-08-24 19:15:00,
2013-08-24 12:20:00,76.0,49.2,29.90,ENE,68,2.9,3.8,39,0.00,,,0.00,WUHU216HW,2013-08-24 19:20:00,
2013-08-24 12:25:00,75.2,48.6,29.90,NNE,23,1.1,8.7,39,0.00,,,0.00,WUHU216HW,2013-08-24 19:25:00,
2013-08-24 12:35:00,76.0,47.7,29.90,SW,225,1.3,6.0,37,0.00,,,0.00,WUHU216HW,2013-08-24 19:35:00,
2013-08-24 12:45:00,75.4,47.3,29.90,East,90,3.8,8.5,37,0.00,,,0.00,WUHU216HW,2013-08-24 19:45:00,
2013-08-24 12:55:00,75.4,46.4,29.89,East,90,3.6,5.4,36,0.00,,,0.00,WUHU216HW,2013-08-24 19:55:00,
2013-08-24 13:05:00,76.0,44.6,29.89,NNE,23,4.9,8.1,33,0.00,,,0.00,WUHU216HW,2013-08-24 20:05:00,
2013-08-24 13:15:00,77.4,46.0,29.89,NNE,23,4.7,6.5,33,0.00,,,0.00,WUHU216HW,2013-08-24 20:15:00,
2013-08-24 13:25:00,76.7,46.1,29.89,North,0,6.3,8.5,34,0.00,,,0.00,WUHU216HW,2013-08-24 20:25:00,
2013-08-24 13:35:00,77.2,45.8,29.88,North,0,8.9,8.9,33,0.00,,,0.00,WUHU216HW,2013-08-24 20:35:00,
2013-08-24 13:44:00,78.8,46.4,29.88,NW,315,6.5,8.9,32,0.00,,,0.00,WUHU216HW,2013-08-24 20:44:00,
2013-08-24 13:54:00,79.9,46.5,29.88,NNW,338,2.5,8.9,31,0.00,,,0.00,WUHU216HW,2013-08-24 20:54:00,
2013-08-24 14:04:00,80.8,47.3,29.88,West,270,6.3,6.9,31,0.00,,,0.00,WUHU216HW,2013-08-24 21:04:00,
2013-08-24 14:14:00,79.7,47.2,29.87,NE,45,5.4,9.2,32,0.00,,,0.00,WUHU216HW,2013-08-24 21:14:00,
2013-08-24 14:24:00,79.9,47.3,29.87,ENE,68,3.6,9.2,32,0.00,,,0.00,WUHU216HW,2013-08-24 21:24:00,
2013-08-24 14:34:00,81.7,47.4,29.87,NNW,338,6.7,6.7,30,0.00,,,0.00,WUHU216HW,2013-08-24 21:34:00,
2013-08-24 14:39:00,80.3,46.9,29.87,East,90,3.8,6.7,31,0.00,,,0.00,WUHU216HW,2013-08-24 21:39:00,
2013-08-24 14:49:00,81.4,47.8,29.86,NW,315,4.3,9.6,31,0.00,,,0.00,WUHU216HW,2013-08-24 21:49:00,
2013-08-24 14:54:00,81.5,47.2,29.86,North,0,5.8,9.6,30,0.00,,,0.00,WUHU216HW,2013-08-24 21:54:00,
2013-08-24 14:59:00,81.7,47.4,29.86,WSW,248,5.4,6.9,30,0.00,,,0.00,WUHU216HW,2013-08-24 21:59:00,
2013-08-24 15:04:00,81.9,46.5,29.86,West,270,8.5,8.5,29,0.00,,,0.00,WUHU216HW,2013-08-24 22:04:00,
2013-08-24 15:14:00,82.3,47.7,29.86,North,0,2.5,10.1,30,0.00,,,0.00,WUHU216HW,2013-08-24 22:14:00,
2013-08-24 15:24:00,82.4,45.8,29.85,NE,45,6.7,7.8,28,0.00,,,0.00,WUHU216HW,2013-08-24 22:24:00,
2013-08-24 15:34:00,83.7,44.8,29.86,SW,225,10.5,10.5,26,0.00,,,0.00,WUHU216HW,2013-08-24 22:34:00,
2013-08-24 15:39:00,82.6,46.0,29.85,WNW,293,8.1,10.5,28,0.00,,,0.00,WUHU216HW,2013-08-24 22:39:00,
2013-08-24 15:44:00,83.0,46.3,29.85,WNW,293,5.8,11.4,28,0.00,,,0.00,WUHU216HW,2013-08-24 22:44:00,
2013-08-24 15:49:00,83.7,44.8,29.85,NW,315,2.5,11.4,26,0.00,,,0.00,WUHU216HW,2013-08-24 22:49:00,
2013-08-24 15:54:00,84.2,45.3,29.85,NW,315,9.2,9.6,26,0.00,,,0.00,WUHU216HW,2013-08-24 22:54:00,
2013-08-24 15:59:00,83.7,44.8,29.85,SW,225,10.3,14.1,26,0.00,,,0.00,WUHU216HW,2013-08-24 22:59:00,
2013-08-24 16:04:00,83.5,44.7,29.85,WNW,293,4.0,14.1,26,0.00,,,0.00,WUHU216HW,2013-08-24 23:04:00,
2013-08-24 16:09:00,83.9,44.9,29.85,SW,225,8.5,8.5,26,0.00,,,0.00,WUHU216HW,2013-08-24 23:09:00,
2013-08-24 16:14:00,83.5,44.7,29.85,WSW,248,6.9,8.5,26,0.00,,,0.00,WUHU216HW,2013-08-24 23:14:00,
2013-08-24 16:19:00,83.9,43.9,29.85,WSW,248,9.8,9.8,25,0.00,,,0.00,WUHU216HW,2013-08-24 23:19:00,
2013-08-24 16:24:00,84.6,44.5,29.85,WSW,248,5.6,9.8,25,0.00,,,0.00,WUHU216HW,2013-08-24 23:24:00,
2013-08-24 16:29:00,84.6,44.5,29.85,WNW,293,6.5,8.1,25,0.00,,,0.00,WUHU216HW,2013-08-24 23:29:00,
2013-08-24 16:34:00,85.1,44.9,29.85,West,270,8.5,10.1,25,0.00,,,0.00,WUHU216HW,2013-08-24 23:34:00,
2013-08-24 16:39:00,85.3,45.1,29.85,West,270,6.9,10.1,25,0.00,,,0.00,WUHU216HW,2013-08-24 23:39:00,
2013-08-24 16:44:00,84.4,45.5,29.85,NNW,338,7.2,9.2,26,0.00,,,0.00,WUHU216HW,2013-08-24 23:44:00,
2013-08-24 16:49:00,83.5,44.7,29.85,SW,225,6.3,9.2,26,0.00,,,0.00,WUHU216HW,2013-08-24 23:49:00,
2013-08-24 16:54:00,82.8,46.1,29.85,West,270,4.0,9.2,28,0.00,,,0.00,WUHU216HW,2013-08-24 23:54:00,
2013-08-24 16:59:00,82.4,45.8,29.85,WNW,293,6.5,15.0,28,0.00,,,0.00,WUHU216HW,2013-08-24 23:59:00,
2013-08-24 17:04:00,82.3,46.7,29.85,WNW,293,4.0,15.0,29,0.00,,,0.00,WUHU216HW,2013-08-25 00:04:00,
2013-08-24 17:09:00,81.5,47.2,29.85,WSW,248,10.1,12.1,30,0.00,,,0.00,WUHU216HW,2013-08-25 00:09:00,
2013-08-24 17:14:00,79.9,46.5,29.85,West,270,10.3,12.1,31,0.00,,,0.00,WUHU216HW,2013-08-25 00:14:00,
2013-08-24 17:19:00,79.2,46.7,29.86,WSW,248,6.7,14.3,32,0.00,,,0.00,WUHU216HW,2013-08-25 00:19:00,
2013-08-24 17:24:00,79.2,46.7,29.86,WNW,293,6.9,14.3,32,0.00,,,0.00,WUHU216HW,2013-08-25 00:24:00,
2013-08-24 17:29:00,78.3,46.7,29.86,West,270,3.4,12.5,33,0.00,,,0.00,WUHU216HW,2013-08-25 00:29:00,
2013-08-24 17:34:00,77.8,46.3,29.86,WSW,248,12.3,12.3,33,0.00,,,0.00,WUHU216HW,2013-08-25 00:34:00,
2013-08-24 17:39:00,76.9,46.3,29.86,WSW,248,5.8,12.3,34,0.00,,,0.00,WUHU216HW,2013-08-25 00:39:00,
2013-08-24 17:44:00,76.3,45.7,29.86,WSW,248,7.6,12.3,34,0.00,,,0.00,WUHU216HW,2013-08-25 00:44:00,
2013-08-24 17:49:00,76.1,46.4,29.86,West,270,6.0,10.7,35,0.00,,,0.00,WUHU216HW,2013-08-25 00:49:00,
2013-08-24 17:54:00,76.0,46.2,29.86,West,270,11.6,11.6,35,0.00,,,0.00,WUHU216HW,2013-08-25 00:54:00,
2013-08-24 17:59:00,76.1,46.4,29.87,WSW,248,5.4,11.6,35,0.00,,,0.00,WUHU216HW,2013-08-25 00:59:00,
2013-08-24 18:04:00,75.4,47.3,29.88,West,270,7.6,8.7,37,0.00,,,0.00,WUHU216HW,2013-08-25 01:04:00,
2013-08-24 18:09:00,75.2,47.1,29.89,SW,225,3.4,8.5,37,0.00,,,0.00,WUHU216HW,2013-08-25 01:09:00,
2013-08-24 18:14:00,74.9,50.9,29.89,West,270,4.7,8.5,43,0.00,,,0.00,WUHU216HW,2013-08-25 01:14:00,
2013-08-24 18:19:00,72.0,54.4,29.89,WNW,293,6.0,8.5,54,0.06,,,0.04,WUHU216HW,2013-08-25 01:19:00,
2013-08-24 18:24:00,67.9,53.5,29.90,WSW,248,1.8,8.5,60,0.13,,,0.10,WUHU216HW,2013-08-25 01:24:00,
2013-08-24 18:29:00,67.5,56.2,29.90,WSW,248,2.0,6.9,67,0.13,,,0.12,WUHU216HW,2013-08-25 01:29:00,
2013-08-24 18:34:00,67.7,55.0,29.90,WSW,248,0.7,3.6,64,0.13,,,0.12,WUHU216HW,2013-08-25 01:34:00,
2013-08-24 18:39:00,68.6,56.4,29.90,WSW,248,1.3,1.3,65,0.13,,,0.12,WUHU216HW,2013-08-25 01:39:00,
2013-08-24 18:44:00,68.8,56.9,29.90,NE,45,5.8,6.3,66,0.13,,,0.12,WUHU216HW,2013-08-25 01:44:00,
2013-08-24 18:49:00,68.2,57.2,29.90,ENE,68,5.6,6.3,68,0.13,,,0.12,WUHU216HW,2013-08-25 01:49:00,
2013-08-24 18:54:00,68.0,54.9,29.90,ENE,68,4.7,6.0,63,0.13,,,0.12,WUHU216HW,2013-08-25 01:54:00,
2013-08-24 18:59:00,67.5,56.2,29.90,ENE,68,8.1,8.1,67,0.13,,,0.12,WUHU216HW,2013-08-25 01:59:00,
2013-08-24 19:04:00,67.0,56.4,29.90,NNE,23,4.7,8.1,69,0.13,,,0.12,WUHU216HW,2013-08-25 02:04:00,
2013-08-24 19:09:00,66.8,55.0,29.90,NNE,23,6.3,6.3,66,0.13,,,0.12,WUHU216HW,2013-08-25 02:09:00,
2013-08-24 19:14:00,66.6,54.8,29.90,North,0,5.4,6.3,66,0.11,,,0.12,WUHU216HW,2013-08-25 02:14:00,
2013-08-24 19:19:00,66.6,55.7,29.90,North,0,6.3,6.3,68,0.02,,,0.12,WUHU216HW,2013-08-25 02:19:00,
2013-08-24 19:24:00,66.4,55.1,29.90,North,0,6.9,6.9,67,0.00,,,0.12,WUHU216HW,2013-08-25 02:24:00,
2013-08-24 19:29:00,65.9,54.5,29.91,North,0,8.7,8.7,67,0.00,,,0.12,WUHU216HW,2013-08-25 02:29:00,
2013-08-24 19:34:00,65.2,55.2,29.91,NNE,23,9.6,9.6,70,0.00,,,0.12,WUHU216HW,2013-08-25 02:34:00,
2013-08-24 19:39:00,64.8,54.9,29.92,North,0,6.9,9.6,70,0.00,,,0.12,WUHU216HW,2013-08-25 02:39:00,
2013-08-24 19:44:00,64.4,54.9,29.92,NE,45,6.5,9.6,71,0.00,,,0.12,WUHU216HW,2013-08-25 02:44:00,
2013-08-24 19:49:00,64.1,54.5,29.92,NNE,23,7.8,7.8,71,0.00,,,0.12,WUHU216HW,2013-08-25 02:49:00,
2013-08-24 19:54:00,63.9,54.7,29.92,NNW,338,4.7,7.8,72,0.00,,,0.12,WUHU216HW,2013-08-25 02:54:00,
2013-08-24 19:59:00,63.7,54.2,29.93,NNE,23,11.4,11.4,71,0.00,,,0.12,WUHU216HW,2013-08-25 02:59:00,
2013-08-24 20:04:00,63.4,54.2,29.93,NNE,23,7.4,11.4,72,0.00,,,0.12,WUHU216HW,2013-08-25 03:04:00,
2013-08-24 20:09:00,63.2,54.4,29.94,North,0,6.9,11.4,73,0.00,,,0.12,WUHU216HW,2013-08-25 03:09:00,
2013-08-24 20:14:00,63.0,53.8,29.94,North,0,6.5,7.4,72,0.00,,,0.12,WUHU216HW,2013-08-25 03:14:00,
2013-08-24 20:19:00,63.0,53.5,29.94,North,0,6.7,6.9,71,0.00,,,0.12,WUHU216HW,2013-08-25 03:19:00,
2013-08-24 20:24:00,63.0,53.5,29.95,North,0,5.1,6.7,71,0.00,,,0.12,WUHU216HW,2013-08-25 03:24:00,
2013-08-24 20:29:00,63.0,53.8,29.95,NE,45,6.3,6.3,72,0.00,,,0.12,WUHU216HW,2013-08-25 03:29:00,
2013-08-24 20:34:00,63.0,53.8,29.95,NNE,23,2.7,6.3,72,0.00,,,0.12,WUHU216HW,2013-08-25 03:34:00,
2013-08-24 20:39:00,63.0,53.8,29.95,NE,45,4.3,6.3,72,0.00,,,0.12,WUHU216HW,2013-08-25 03:39:00,
2013-08-24 20:44:00,62.8,54.0,29.95,East,90,4.0,5.4,73,0.00,,,0.12,WUHU216HW,2013-08-25 03:44:00,
2013-08-24 20:49:00,62.6,53.8,29.95,NNE,23,2.5,5.4,73,0.00,,,0.12,WUHU216HW,2013-08-25 03:49:00,
2013-08-24 20:54:00,62.6,53.8,29.95,NNE,23,2.7,4.7,73,0.00,,,0.12,WUHU216HW,2013-08-25 03:54:00,
2013-08-24 20:59:00,62.5,53.6,29.95,North,0,1.8,4.5,73,0.00,,,0.12,WUHU216HW,2013-08-25 03:59:00,
2013-08-24 21:04:00,62.5,53.6,29.95,North,0,2.0,4.5,73,0.00,,,0.12,WUHU216HW,2013-08-25 04:04:00,
2013-08-24 21:09:00,62.5,53.6,29.95,North,0,0.9,3.4,73,0.00,,,0.12,WUHU216HW,2013-08-25 04:09:00,
2013-08-24 21:14:00,62.5,53.6,29.95,NNE,23,1.3,2.9,73,0.00,,,0.12,WUHU216HW,2013-08-25 04:14:00,
2013-08-24 21:19:00,62.5,53.6,29.96,North,0,2.5,2.5,73,0.00,,,0.12,WUHU216HW,2013-08-25 04:19:00,
2013-08-24 21:24:00,62.5,53.6,29.95,NNE,23,3.8,3.8,73,0.00,,,0.12,WUHU216HW,2013-08-25 04:24:00,
2013-08-24 21:29:00,62.5,53.6,29.96,North,0,2.7,3.8,73,0.00,,,0.12,WUHU216HW,2013-08-25 04:29:00,
2013-08-24 21:34:00,62.6,53.8,29.95,North,0,3.6,5.4,73,0.00,,,0.12,WUHU216HW,2013-08-25 04:34:00,
2013-08-24 21:39:00,62.6,53.5,29.95,NNW,338,3.1,5.6,72,0.00,,,0.12,WUHU216HW,2013-08-25 04:39:00,
2013-08-24 21:44:00,62.6,53.5,29.95,NNE,23,3.4,8.7,72,0.00,,,0.12,WUHU216HW,2013-08-25 04:44:00,
2013-08-24 21:49:00,62.6,53.5,29.96,North,0,5.4,8.7,72,0.00,,,0.12,WUHU216HW,2013-08-25 04:49:00,
2013-08-24 21:54:00,62.6,53.5,29.95,NNW,338,3.4,6.5,72,0.00,,,0.12,WUHU216HW,2013-08-25 04:54:00,
2013-08-24 21:59:00,62.6,53.8,29.95,NNW,338,5.4,6.5,73,0.00,,,0.12,WUHU216HW,2013-08-25 04:59:00,
2013-08-24 22:04:00,62.6,53.8,29.94,NW,315,4.7,5.4,73,0.00,,,0.12,WUHU216HW,2013-08-25 05:04:00,
2013-08-24 22:09:00,62.5,53.6,29.94,North,0,4.7,5.4,73,0.00,,,0.12,WUHU216HW,2013-08-25 05:09:00,
2013-08-24 22:14:00,62.3,54.2,29.95,NNE,23,3.8,6.5,75,0.00,,,0.12,WUHU216HW,2013-08-25 05:14:00,
2013-08-24 22:19:00,61.9,53.9,29.95,NNE,23,5.8,6.5,75,0.00,,,0.12,WUHU216HW,2013-08-25 05:19:00,
2013-08-24 22:24:00,61.7,53.4,29.95,North,0,6.7,6.7,74,0.00,,,0.12,WUHU216HW,2013-08-25 05:24:00,
2013-08-24 22:29:00,61.7,53.4,29.95,NNE,23,4.5,6.7,74,0.00,,,0.12,WUHU216HW,2013-08-25 05:29:00,
2013-08-24 22:34:00,61.7,52.7,29.96,NNW,338,4.0,4.5,72,0.00,,,0.12,WUHU216HW,2013-08-25 05:34:00,
2013-08-24 22:39:00,61.7,52.3,29.96,NNW,338,3.1,4.0,71,0.00,,,0.12,WUHU216HW,2013-08-25 05:39:00,
2013-08-24 22:44:00,61.7,52.7,29.96,NNW,338,1.8,4.0,72,0.00,,,0.12,WUHU216HW,2013-08-25 05:44:00,
2013-08-24 22:49:00,61.7,52.7,29.96,NNW,338,1.1,3.1,72,0.00,,,0.12,WUHU216HW,2013-08-25 05:49:00,
2013-08-24 22:54:00,61.6,52.5,29.96,NNW,338,0.0,2.2,72,0.00,,,0.12,WUHU216HW,2013-08-25 05:54:00,
2013-08-24 22:59:00,61.4,52.7,29.96,NNW,338,0.9,2.2,73,0.00,,,0.12,WUHU216HW,2013-08-25 05:59:00,
2013-08-24 23:04:00,61.2,52.2,29.96,NNW,338,0.0,0.9,72,0.00,,,0.12,WUHU216HW,2013-08-25 06:04:00,
2013-08-24 23:09:00,61.0,52.8,29.96,NW,315,1.8,1.8,74,0.00,,,0.12,WUHU216HW,2013-08-25 06:09:00,
2013-08-24 23:14:00,60.8,52.6,29.96,NW,315,0.4,1.8,74,0.00,,,0.12,WUHU216HW,2013-08-25 06:14:00,
2013-08-24 23:19:00,60.7,53.1,29.96,NNE,23,0.9,1.8,76,0.00,,,0.12,WUHU216HW,2013-08-25 06:19:00,
2013-08-24 23:24:00,60.3,52.7,29.96,NNE,23,2.5,2.5,76,0.00,,,0.12,WUHU216HW,2013-08-25 06:24:00,
2013-08-24 23:29:00,60.1,52.9,29.95,NNE,23,1.8,2.5,77,0.00,,,0.12,WUHU216HW,2013-08-25 06:29:00,
2013-08-24 23:34:00,59.9,52.4,29.95,NNE,23,2.7,2.7,76,0.00,,,0.12,WUHU216HW,2013-08-25 06:34:00,
2013-08-24 23:39:00,60.1,52.6,29.96,NNW,338,1.1,2.7,76,0.00,,,0.12,WUHU216HW,2013-08-25 06:39:00,
2013-08-24 23:44:00,60.1,52.6,29.95,NNW,338,0.7,1.8,76,0.00,,,0.12,WUHU216HW,2013-08-25 06:44:00,
2013-08-24 23:49:00,59.9,52.4,29.96,NW,315,1.1,1.1,76,0.00,,,0.12,WUHU216HW,2013-08-25 06:49:00,
2013-08-24 23:54:00,59.8,52.6,29.95,NW,315,0.9,1.1,77,0.00,,,0.12,WUHU216HW,2013-08-25 06:54:00,
2013-08-24 23:59:00,59.8,52.2,29.95,NW,315,0.0,1.1,76,0.00,,,0.00,WUHU216HW,2013-08-25 06:59:00,